sensor_id;sensor_type;location;lat;lon;timestamp;temperature;humidity
27544;DHT22;17996;51.056;3.656;2023-03-16T00:02:18;8.10;99.90
27544;DHT22;17996;51.056;3.656;2023-03-16T00:04:43;8.10;99.90
27544;DHT22;17996;51.056;3.656;2023-03-16T00:07:12;8.10;99.90
27544;DHT22;17996;51.056;3.656;2023-03-16T00:09:39;8.10;99.90
27544;DHT22;17996;51.056;3.656;2023-03-16T00:12:14;8.10;99.90
27544;DHT22;17996;51.056;3.656;2023-03-16T00:14:41;8.10;99.90
27544;DHT22;17996;51.056;3.656;2023-03-16T00:17:09;8.10;99.90
27544;DHT22;17996;51.056;3.656;2023-03-16T00:19:44;8.10;99.90
27544;DHT22;17996;51.056;3.656;2023-03-16T00:22:12;8.00;99.90
27544;DHT22;17996;51.056;3.656;2023-03-16T00:24:39;8.00;99.90
27544;DHT22;17996;51.056;3.656;2023-03-16T00:27:09;8.00;99.90
27544;DHT22;17996;51.056;3.656;2023-03-16T00:29:44;8.00;99.90
27544;DHT22;17996;51.056;3.656;2023-03-16T00:34:41;8.10;99.90
27544;DHT22;17996;51.056;3.656;2023-03-16T00:37:07;8.10;99.90
27544;DHT22;17996;51.056;3.656;2023-03-16T00:39:33;8.10;99.90
27544;DHT22;17996;51.056;3.656;2023-03-16T00:42:00;8.10;99.90
27544;DHT22;17996;51.056;3.656;2023-03-16T00:44:26;8.20;99.90
27544;DHT22;17996;51.056;3.656;2023-03-16T00:46:52;8.10;99.90
27544;DHT22;17996;51.056;3.656;2023-03-16T00:49:18;8.10;99.90
27544;DHT22;17996;51.056;3.656;2023-03-16T00:51:43;8.10;99.90
27544;DHT22;17996;51.056;3.656;2023-03-16T00:54:11;8.10;99.90
27544;DHT22;17996;51.056;3.656;2023-03-16T00:56:37;8.10;99.90
27544;DHT22;17996;51.056;3.656;2023-03-16T00:59:03;8.00;99.90
27544;DHT22;17996;51.056;3.656;2023-03-16T01:01:30;8.10;99.90
27544;DHT22;17996;51.056;3.656;2023-03-16T01:03:57;8.00;99.90
27544;DHT22;17996;51.056;3.656;2023-03-16T01:06:24;8.00;99.90
27544;DHT22;17996;51.056;3.656;2023-03-16T01:08:50;8.00;99.90
27544;DHT22;17996;51.056;3.656;2023-03-16T01:11:19;8.10;99.90
27544;DHT22;17996;51.056;3.656;2023-03-16T01:13:47;8.10;99.90
27544;DHT22;17996;51.056;3.656;2023-03-16T01:16:15;8.10;99.90
27544;DHT22;17996;51.056;3.656;2023-03-16T01:18:41;8.00;99.90
27544;DHT22;17996;51.056;3.656;2023-03-16T01:21:07;8.00;99.90
27544;DHT22;17996;51.056;3.656;2023-03-16T01:23:35;8.00;99.90
27544;DHT22;17996;51.056;3.656;2023-03-16T01:26:01;8.00;99.90
27544;DHT22;17996;51.056;3.656;2023-03-16T01:28:29;8.10;99.90
27544;DHT22;17996;51.056;3.656;2023-03-16T01:30:58;8.00;99.90
27544;DHT22;17996;51.056;3.656;2023-03-16T01:33:26;8.00;99.90
27544;DHT22;17996;51.056;3.656;2023-03-16T01:35:54;8.00;99.90
27544;DHT22;17996;51.056;3.656;2023-03-16T01:38:20;7.90;99.90
27544;DHT22;17996;51.056;3.656;2023-03-16T01:40:48;7.90;99.90
27544;DHT22;17996;51.056;3.656;2023-03-16T01:43:20;7.90;99.90
27544;DHT22;17996;51.056;3.656;2023-03-16T01:46:14;7.90;99.90
27544;DHT22;17996;51.056;3.656;2023-03-16T01:51:30;7.90;99.90
27544;DHT22;17996;51.056;3.656;2023-03-16T01:54:10;7.80;99.90
27544;DHT22;17996;51.056;3.656;2023-03-16T01:56:54;7.90;99.90
27544;DHT22;17996;51.056;3.656;2023-03-16T01:59:24;7.90;99.90
27544;DHT22;17996;51.056;3.656;2023-03-16T02:01:52;7.80;99.90
27544;DHT22;17996;51.056;3.656;2023-03-16T02:07:12;7.90;99.90
27544;DHT22;17996;51.056;3.656;2023-03-16T02:09:43;7.90;99.90
27544;DHT22;17996;51.056;3.656;2023-03-16T02:12:13;7.90;99.90
27544;DHT22;17996;51.056;3.656;2023-03-16T02:14:49;7.90;99.90
27544;DHT22;17996;51.056;3.656;2023-03-16T02:17:19;7.90;99.90
27544;DHT22;17996;51.056;3.656;2023-03-16T02:22:13;7.90;99.90
27544;DHT22;17996;51.056;3.656;2023-03-16T02:24:40;7.90;99.90
27544;DHT22;17996;51.056;3.656;2023-03-16T02:27:12;7.90;99.90
27544;DHT22;17996;51.056;3.656;2023-03-16T02:32:31;7.90;99.90
27544;DHT22;17996;51.056;3.656;2023-03-16T02:34:59;7.90;99.90
27544;DHT22;17996;51.056;3.656;2023-03-16T02:37:26;7.90;99.90
27544;DHT22;17996;51.056;3.656;2023-03-16T02:39:52;7.90;99.90
27544;DHT22;17996;51.056;3.656;2023-03-16T02:42:20;7.80;99.90
27544;DHT22;17996;51.056;3.656;2023-03-16T02:44:51;7.80;99.90
27544;DHT22;17996;51.056;3.656;2023-03-16T02:47:42;7.80;99.90
27544;DHT22;17996;51.056;3.656;2023-03-16T02:50:09;7.80;99.90
27544;DHT22;17996;51.056;3.656;2023-03-16T02:52:37;7.80;99.90
27544;DHT22;17996;51.056;3.656;2023-03-16T02:55:07;7.80;99.90
27544;DHT22;17996;51.056;3.656;2023-03-16T02:57:33;7.90;99.90
27544;DHT22;17996;51.056;3.656;2023-03-16T02:59:59;7.80;99.90
27544;DHT22;17996;51.056;3.656;2023-03-16T03:02:25;7.90;99.90
27544;DHT22;17996;51.056;3.656;2023-03-16T03:04:51;7.90;99.90
27544;DHT22;17996;51.056;3.656;2023-03-16T03:07:20;7.90;99.90
27544;DHT22;17996;51.056;3.656;2023-03-16T03:09:46;7.80;99.90
27544;DHT22;17996;51.056;3.656;2023-03-16T03:12:12;7.90;99.90
27544;DHT22;17996;51.056;3.656;2023-03-16T03:14:38;7.90;99.90
27544;DHT22;17996;51.056;3.656;2023-03-16T03:17:05;7.90;99.90
27544;DHT22;17996;51.056;3.656;2023-03-16T03:19:33;7.90;99.90
27544;DHT22;17996;51.056;3.656;2023-03-16T03:22:00;7.90;99.90
27544;DHT22;17996;51.056;3.656;2023-03-16T03:24:29;7.90;99.90
27544;DHT22;17996;51.056;3.656;2023-03-16T03:26:54;7.90;99.90
27544;DHT22;17996;51.056;3.656;2023-03-16T03:29:20;7.90;99.90
27544;DHT22;17996;51.056;3.656;2023-03-16T03:31:46;7.90;99.90
27544;DHT22;17996;51.056;3.656;2023-03-16T03:34:11;7.90;99.90
27544;DHT22;17996;51.056;3.656;2023-03-16T03:36:37;7.90;99.90
27544;DHT22;17996;51.056;3.656;2023-03-16T03:39:03;7.90;99.90
27544;DHT22;17996;51.056;3.656;2023-03-16T03:41:30;7.90;99.90
27544;DHT22;17996;51.056;3.656;2023-03-16T03:43:58;7.80;99.90
27544;DHT22;17996;51.056;3.656;2023-03-16T03:46:25;7.80;99.90
27544;DHT22;17996;51.056;3.656;2023-03-16T03:48:50;7.80;99.90
27544;DHT22;17996;51.056;3.656;2023-03-16T03:51:16;7.80;99.90
27544;DHT22;17996;51.056;3.656;2023-03-16T03:53:42;7.80;99.90
27544;DHT22;17996;51.056;3.656;2023-03-16T03:56:08;7.80;99.90
27544;DHT22;17996;51.056;3.656;2023-03-16T03:58:33;7.80;99.90
27544;DHT22;17996;51.056;3.656;2023-03-16T04:00:59;7.80;99.90
27544;DHT22;17996;51.056;3.656;2023-03-16T04:03:25;7.90;99.90
27544;DHT22;17996;51.056;3.656;2023-03-16T04:05:51;7.90;99.90
27544;DHT22;17996;51.056;3.656;2023-03-16T04:08:17;7.80;99.90
27544;DHT22;17996;51.056;3.656;2023-03-16T04:10:42;7.90;99.90
27544;DHT22;17996;51.056;3.656;2023-03-16T04:13:09;7.80;99.90
27544;DHT22;17996;51.056;3.656;2023-03-16T04:15:35;7.90;99.90
27544;DHT22;17996;51.056;3.656;2023-03-16T04:18:03;7.80;99.90
27544;DHT22;17996;51.056;3.656;2023-03-16T04:20:29;7.90;99.90
27544;DHT22;17996;51.056;3.656;2023-03-16T04:22:54;7.90;99.90
27544;DHT22;17996;51.056;3.656;2023-03-16T04:25:24;7.80;99.90
27544;DHT22;17996;51.056;3.656;2023-03-16T04:27:55;7.80;99.90
27544;DHT22;17996;51.056;3.656;2023-03-16T04:30:21;7.80;99.90
27544;DHT22;17996;51.056;3.656;2023-03-16T04:32:49;7.80;99.90
27544;DHT22;17996;51.056;3.656;2023-03-16T04:35:16;7.80;99.90
27544;DHT22;17996;51.056;3.656;2023-03-16T04:37:42;7.80;99.90
27544;DHT22;17996;51.056;3.656;2023-03-16T04:40:09;7.80;99.90
27544;DHT22;17996;51.056;3.656;2023-03-16T04:42:41;7.80;99.90
27544;DHT22;17996;51.056;3.656;2023-03-16T04:45:07;7.80;99.90
27544;DHT22;17996;51.056;3.656;2023-03-16T04:47:33;7.80;99.90
27544;DHT22;17996;51.056;3.656;2023-03-16T04:50:02;7.80;99.90
27544;DHT22;17996;51.056;3.656;2023-03-16T04:52:28;7.80;99.90
27544;DHT22;17996;51.056;3.656;2023-03-16T04:54:55;7.80;99.90
27544;DHT22;17996;51.056;3.656;2023-03-16T04:57:21;7.70;99.90
27544;DHT22;17996;51.056;3.656;2023-03-16T04:59:48;7.70;99.90
27544;DHT22;17996;51.056;3.656;2023-03-16T05:02:14;7.80;99.90
27544;DHT22;17996;51.056;3.656;2023-03-16T05:04:41;7.80;99.90
27544;DHT22;17996;51.056;3.656;2023-03-16T05:07:07;7.80;99.90
27544;DHT22;17996;51.056;3.656;2023-03-16T05:09:32;7.70;99.90
27544;DHT22;17996;51.056;3.656;2023-03-16T05:11:58;7.70;99.90
27544;DHT22;17996;51.056;3.656;2023-03-16T05:14:24;7.70;99.90
27544;DHT22;17996;51.056;3.656;2023-03-16T05:16:49;7.80;99.90
27544;DHT22;17996;51.056;3.656;2023-03-16T05:19:16;7.80;99.90
27544;DHT22;17996;51.056;3.656;2023-03-16T05:21:42;7.80;99.90
27544;DHT22;17996;51.056;3.656;2023-03-16T05:24:10;7.80;99.90
27544;DHT22;17996;51.056;3.656;2023-03-16T05:26:37;7.80;99.90
27544;DHT22;17996;51.056;3.656;2023-03-16T05:29:03;7.80;99.90
27544;DHT22;17996;51.056;3.656;2023-03-16T05:31:29;7.80;99.90
27544;DHT22;17996;51.056;3.656;2023-03-16T05:33:58;7.80;99.90
27544;DHT22;17996;51.056;3.656;2023-03-16T05:36:24;7.80;99.90
27544;DHT22;17996;51.056;3.656;2023-03-16T05:38:50;7.80;99.90
27544;DHT22;17996;51.056;3.656;2023-03-16T05:41:16;7.90;99.90
27544;DHT22;17996;51.056;3.656;2023-03-16T05:43:45;7.90;99.90
27544;DHT22;17996;51.056;3.656;2023-03-16T05:46:11;7.90;99.90
27544;DHT22;17996;51.056;3.656;2023-03-16T05:48:38;7.80;99.90
27544;DHT22;17996;51.056;3.656;2023-03-16T05:51:04;7.90;99.90
27544;DHT22;17996;51.056;3.656;2023-03-16T05:53:31;7.80;99.90
27544;DHT22;17996;51.056;3.656;2023-03-16T05:55:57;7.90;99.90
27544;DHT22;17996;51.056;3.656;2023-03-16T05:58:23;7.90;99.90
27544;DHT22;17996;51.056;3.656;2023-03-16T06:00:49;7.90;99.90
27544;DHT22;17996;51.056;3.656;2023-03-16T06:03:15;7.90;99.90
27544;DHT22;17996;51.056;3.656;2023-03-16T06:05:41;7.90;99.90
27544;DHT22;17996;51.056;3.656;2023-03-16T06:08:07;7.80;99.90
27544;DHT22;17996;51.056;3.656;2023-03-16T06:10:34;7.80;99.90
27544;DHT22;17996;51.056;3.656;2023-03-16T06:13:00;7.80;99.90
27544;DHT22;17996;51.056;3.656;2023-03-16T06:15:26;7.90;99.90
27544;DHT22;17996;51.056;3.656;2023-03-16T06:17:55;7.90;99.90
27544;DHT22;17996;51.056;3.656;2023-03-16T06:20:21;7.90;99.90
27544;DHT22;17996;51.056;3.656;2023-03-16T06:22:47;7.80;99.90
27544;DHT22;17996;51.056;3.656;2023-03-16T06:25:13;7.80;99.90
27544;DHT22;17996;51.056;3.656;2023-03-16T06:27:39;7.80;99.90
27544;DHT22;17996;51.056;3.656;2023-03-16T06:30:07;7.80;99.90
27544;DHT22;17996;51.056;3.656;2023-03-16T06:32:34;7.90;99.90
27544;DHT22;17996;51.056;3.656;2023-03-16T06:35:01;7.80;99.90
27544;DHT22;17996;51.056;3.656;2023-03-16T06:37:28;7.80;99.90
27544;DHT22;17996;51.056;3.656;2023-03-16T06:39:54;7.90;99.90
27544;DHT22;17996;51.056;3.656;2023-03-16T06:42:20;7.90;99.90
27544;DHT22;17996;51.056;3.656;2023-03-16T06:44:46;8.00;99.90
27544;DHT22;17996;51.056;3.656;2023-03-16T06:47:12;7.90;99.90
27544;DHT22;17996;51.056;3.656;2023-03-16T06:49:38;8.00;99.90
27544;DHT22;17996;51.056;3.656;2023-03-16T06:52:04;8.00;99.90
27544;DHT22;17996;51.056;3.656;2023-03-16T06:54:30;8.00;99.90
27544;DHT22;17996;51.056;3.656;2023-03-16T06:56:58;8.00;99.90
27544;DHT22;17996;51.056;3.656;2023-03-16T06:59:24;8.10;99.90
27544;DHT22;17996;51.056;3.656;2023-03-16T07:01:50;8.20;99.90
27544;DHT22;17996;51.056;3.656;2023-03-16T07:04:15;8.20;99.90
27544;DHT22;17996;51.056;3.656;2023-03-16T07:06:41;8.40;99.90
27544;DHT22;17996;51.056;3.656;2023-03-16T07:09:07;8.50;99.90
27544;DHT22;17996;51.056;3.656;2023-03-16T07:11:33;8.60;99.90
27544;DHT22;17996;51.056;3.656;2023-03-16T07:13:59;8.70;99.90
27544;DHT22;17996;51.056;3.656;2023-03-16T07:16:26;8.70;99.90
27544;DHT22;17996;51.056;3.656;2023-03-16T07:18:52;8.80;99.90
27544;DHT22;17996;51.056;3.656;2023-03-16T07:21:18;8.90;99.90
27544;DHT22;17996;51.056;3.656;2023-03-16T07:23:44;9.00;99.90
27544;DHT22;17996;51.056;3.656;2023-03-16T07:26:10;9.10;99.90
27544;DHT22;17996;51.056;3.656;2023-03-16T07:28:39;9.10;99.90
27544;DHT22;17996;51.056;3.656;2023-03-16T07:31:06;9.20;99.90
27544;DHT22;17996;51.056;3.656;2023-03-16T07:33:33;9.20;99.90
27544;DHT22;17996;51.056;3.656;2023-03-16T07:35:59;9.20;99.90
27544;DHT22;17996;51.056;3.656;2023-03-16T07:38:29;9.20;99.90
27544;DHT22;17996;51.056;3.656;2023-03-16T07:40:55;9.30;99.90
27544;DHT22;17996;51.056;3.656;2023-03-16T07:43:20;9.20;99.90
27544;DHT22;17996;51.056;3.656;2023-03-16T07:45:50;9.30;99.90
27544;DHT22;17996;51.056;3.656;2023-03-16T07:48:16;9.20;99.90
27544;DHT22;17996;51.056;3.656;2023-03-16T07:50:42;9.20;99.90
27544;DHT22;17996;51.056;3.656;2023-03-16T07:53:09;9.30;99.90
27544;DHT22;17996;51.056;3.656;2023-03-16T07:55:35;9.30;99.90
27544;DHT22;17996;51.056;3.656;2023-03-16T07:58:01;9.40;99.90
27544;DHT22;17996;51.056;3.656;2023-03-16T08:00:29;9.40;99.90
27544;DHT22;17996;51.056;3.656;2023-03-16T08:02:55;9.50;99.90
27544;DHT22;17996;51.056;3.656;2023-03-16T08:05:21;9.50;99.90
27544;DHT22;17996;51.056;3.656;2023-03-16T08:07:47;9.60;99.90
27544;DHT22;17996;51.056;3.656;2023-03-16T08:10:13;9.60;99.90
27544;DHT22;17996;51.056;3.656;2023-03-16T08:12:39;9.60;99.90
27544;DHT22;17996;51.056;3.656;2023-03-16T08:15:06;9.80;99.90
27544;DHT22;17996;51.056;3.656;2023-03-16T08:17:32;9.90;99.90
27544;DHT22;17996;51.056;3.656;2023-03-16T08:19:59;10.00;99.90
27544;DHT22;17996;51.056;3.656;2023-03-16T08:22:24;10.20;99.90
27544;DHT22;17996;51.056;3.656;2023-03-16T08:24:51;10.20;99.90
27544;DHT22;17996;51.056;3.656;2023-03-16T08:27:17;10.30;99.90
27544;DHT22;17996;51.056;3.656;2023-03-16T08:29:45;10.40;99.90
27544;DHT22;17996;51.056;3.656;2023-03-16T08:32:10;10.40;99.90
27544;DHT22;17996;51.056;3.656;2023-03-16T08:34:36;10.50;99.90
27544;DHT22;17996;51.056;3.656;2023-03-16T08:37:04;10.60;99.90
27544;DHT22;17996;51.056;3.656;2023-03-16T08:39:31;10.60;99.90
27544;DHT22;17996;51.056;3.656;2023-03-16T08:41:57;10.60;99.90
27544;DHT22;17996;51.056;3.656;2023-03-16T08:44:23;10.70;99.90
27544;DHT22;17996;51.056;3.656;2023-03-16T08:46:50;10.70;99.90
27544;DHT22;17996;51.056;3.656;2023-03-16T08:49:17;10.80;99.90
27544;DHT22;17996;51.056;3.656;2023-03-16T08:51:45;10.80;99.90
27544;DHT22;17996;51.056;3.656;2023-03-16T08:54:11;10.90;99.90
27544;DHT22;17996;51.056;3.656;2023-03-16T08:56:37;10.90;99.90
27544;DHT22;17996;51.056;3.656;2023-03-16T08:59:02;11.00;99.90
27544;DHT22;17996;51.056;3.656;2023-03-16T09:01:28;11.10;99.90
27544;DHT22;17996;51.056;3.656;2023-03-16T09:03:54;11.10;99.90
27544;DHT22;17996;51.056;3.656;2023-03-16T09:06:19;11.20;99.90
27544;DHT22;17996;51.056;3.656;2023-03-16T09:08:46;11.30;99.90
27544;DHT22;17996;51.056;3.656;2023-03-16T09:11:15;11.40;99.90
27544;DHT22;17996;51.056;3.656;2023-03-16T09:13:41;11.40;99.90
27544;DHT22;17996;51.056;3.656;2023-03-16T09:16:08;11.50;99.90
27544;DHT22;17996;51.056;3.656;2023-03-16T09:18:35;11.40;99.90
27544;DHT22;17996;51.056;3.656;2023-03-16T09:21:03;11.50;99.90
27544;DHT22;17996;51.056;3.656;2023-03-16T09:23:30;11.60;99.90
27544;DHT22;17996;51.056;3.656;2023-03-16T09:25:57;11.60;99.90
27544;DHT22;17996;51.056;3.656;2023-03-16T09:28:25;11.60;99.90
27544;DHT22;17996;51.056;3.656;2023-03-16T09:34:01;11.80;99.90
27544;DHT22;17996;51.056;3.656;2023-03-16T09:36:27;11.80;99.90
27544;DHT22;17996;51.056;3.656;2023-03-16T09:38:53;11.90;99.90
27544;DHT22;17996;51.056;3.656;2023-03-16T09:41:35;11.90;99.90
27544;DHT22;17996;51.056;3.656;2023-03-16T09:46:40;12.10;99.90
27544;DHT22;17996;51.056;3.656;2023-03-16T09:49:12;12.20;99.90
27544;DHT22;17996;51.056;3.656;2023-03-16T09:57:29;12.40;99.90
27544;DHT22;17996;51.056;3.656;2023-03-16T10:00:01;12.50;99.90
27544;DHT22;17996;51.056;3.656;2023-03-16T10:05:08;12.70;99.90
27544;DHT22;17996;51.056;3.656;2023-03-16T10:08:07;12.80;99.90
27544;DHT22;17996;51.056;3.656;2023-03-16T10:13:49;13.10;99.90
27544;DHT22;17996;51.056;3.656;2023-03-16T10:18:52;13.20;99.90
27544;DHT22;17996;51.056;3.656;2023-03-16T10:21:23;13.40;99.90
27544;DHT22;17996;51.056;3.656;2023-03-16T10:23:51;13.40;99.90
27544;DHT22;17996;51.056;3.656;2023-03-16T10:26:35;13.50;99.90
27544;DHT22;17996;51.056;3.656;2023-03-16T10:29:11;13.70;99.90
27544;DHT22;17996;51.056;3.656;2023-03-16T10:31:40;13.90;99.90
27544;DHT22;17996;51.056;3.656;2023-03-16T10:34:08;14.00;99.90
27544;DHT22;17996;51.056;3.656;2023-03-16T10:36:38;13.90;99.90
27544;DHT22;17996;51.056;3.656;2023-03-16T10:39:08;14.00;99.90
27544;DHT22;17996;51.056;3.656;2023-03-16T10:41:46;13.90;99.90
27544;DHT22;17996;51.056;3.656;2023-03-16T10:44:27;13.90;99.90
27544;DHT22;17996;51.056;3.656;2023-03-16T10:47:05;13.80;99.90
27544;DHT22;17996;51.056;3.656;2023-03-16T10:49:40;13.70;99.90
27544;DHT22;17996;51.056;3.656;2023-03-16T10:54:59;13.70;99.90
27544;DHT22;17996;51.056;3.656;2023-03-16T10:57:34;13.80;99.90
27544;DHT22;17996;51.056;3.656;2023-03-16T11:00:33;13.90;99.90
27544;DHT22;17996;51.056;3.656;2023-03-16T11:03:00;13.80;99.90
27544;DHT22;17996;51.056;3.656;2023-03-16T11:05:30;13.70;99.90
27544;DHT22;17996;51.056;3.656;2023-03-16T11:08:17;13.70;99.90
27544;DHT22;17996;51.056;3.656;2023-03-16T11:10:46;13.60;99.90
27544;DHT22;17996;51.056;3.656;2023-03-16T11:13:19;13.50;99.90
27544;DHT22;17996;51.056;3.656;2023-03-16T11:16:26;13.40;99.90
27544;DHT22;17996;51.056;3.656;2023-03-16T11:19:19;13.50;99.90
27544;DHT22;17996;51.056;3.656;2023-03-16T11:27:02;13.20;99.90
27544;DHT22;17996;51.056;3.656;2023-03-16T11:32:36;13.10;99.90
27544;DHT22;17996;51.056;3.656;2023-03-16T11:35:12;13.10;99.90
27544;DHT22;17996;51.056;3.656;2023-03-16T11:46:04;12.90;99.90
27544;DHT22;17996;51.056;3.656;2023-03-16T11:54:38;12.90;99.90
27544;DHT22;17996;51.056;3.656;2023-03-16T11:57:22;12.90;99.90
27544;DHT22;17996;51.056;3.656;2023-03-16T12:08:24;12.90;99.90
27544;DHT22;17996;51.056;3.656;2023-03-16T12:11:01;12.90;99.90
27544;DHT22;17996;51.056;3.656;2023-03-16T12:16:20;13.00;99.90
27544;DHT22;17996;51.056;3.656;2023-03-16T12:18:54;13.20;99.90
27544;DHT22;17996;51.056;3.656;2023-03-16T12:21:29;13.20;99.90
27544;DHT22;17996;51.056;3.656;2023-03-16T12:24:01;13.40;99.90
27544;DHT22;17996;51.056;3.656;2023-03-16T12:26:32;13.30;99.90
27544;DHT22;17996;51.056;3.656;2023-03-16T12:29:02;13.40;99.90
27544;DHT22;17996;51.056;3.656;2023-03-16T12:31:48;13.40;99.90
27544;DHT22;17996;51.056;3.656;2023-03-16T12:34:47;13.40;99.90
27544;DHT22;17996;51.056;3.656;2023-03-16T12:37:21;13.40;99.90
27544;DHT22;17996;51.056;3.656;2023-03-16T12:44:56;13.50;99.90
27544;DHT22;17996;51.056;3.656;2023-03-16T12:50:13;13.60;99.90
27544;DHT22;17996;51.056;3.656;2023-03-16T12:52:49;13.60;99.90
27544;DHT22;17996;51.056;3.656;2023-03-16T12:55:22;13.70;99.90
27544;DHT22;17996;51.056;3.656;2023-03-16T12:57:50;13.80;99.90
27544;DHT22;17996;51.056;3.656;2023-03-16T13:00:35;13.80;99.90
27544;DHT22;17996;51.056;3.656;2023-03-16T13:03:02;13.80;99.90
27544;DHT22;17996;51.056;3.656;2023-03-16T13:05:31;13.70;99.90
27544;DHT22;17996;51.056;3.656;2023-03-16T13:08:16;13.70;99.90
27544;DHT22;17996;51.056;3.656;2023-03-16T13:11:07;13.80;99.90
27544;DHT22;17996;51.056;3.656;2023-03-16T13:14:15;13.90;99.90
27544;DHT22;17996;51.056;3.656;2023-03-16T13:16:41;14.10;99.90
27544;DHT22;17996;51.056;3.656;2023-03-16T13:19:28;14.10;99.90
27544;DHT22;17996;51.056;3.656;2023-03-16T13:22:04;14.10;99.90
27544;DHT22;17996;51.056;3.656;2023-03-16T13:24:38;14.20;99.90
27544;DHT22;17996;51.056;3.656;2023-03-16T13:27:25;14.30;99.90
27544;DHT22;17996;51.056;3.656;2023-03-16T13:29:57;14.30;99.90
27544;DHT22;17996;51.056;3.656;2023-03-16T13:32:24;14.30;99.90
27544;DHT22;17996;51.056;3.656;2023-03-16T13:34:52;14.30;99.90
27544;DHT22;17996;51.056;3.656;2023-03-16T13:37:22;14.30;99.90
27544;DHT22;17996;51.056;3.656;2023-03-16T13:39:53;14.30;99.90
27544;DHT22;17996;51.056;3.656;2023-03-16T13:42:21;14.40;99.90
27544;DHT22;17996;51.056;3.656;2023-03-16T13:44:51;14.40;99.90
27544;DHT22;17996;51.056;3.656;2023-03-16T13:47:18;14.30;99.90
27544;DHT22;17996;51.056;3.656;2023-03-16T13:49:46;14.40;99.90
27544;DHT22;17996;51.056;3.656;2023-03-16T13:54:55;14.50;99.90
27544;DHT22;17996;51.056;3.656;2023-03-16T13:57:24;14.50;99.90
27544;DHT22;17996;51.056;3.656;2023-03-16T13:59:59;14.60;99.90
27544;DHT22;17996;51.056;3.656;2023-03-16T14:02:25;14.70;99.90
27544;DHT22;17996;51.056;3.656;2023-03-16T14:04:51;14.80;99.90
27544;DHT22;17996;51.056;3.656;2023-03-16T14:07:19;14.90;99.90
27544;DHT22;17996;51.056;3.656;2023-03-16T14:09:45;15.00;99.90
27544;DHT22;17996;51.056;3.656;2023-03-16T14:12:16;14.90;99.90
27544;DHT22;17996;51.056;3.656;2023-03-16T14:14:47;15.00;99.90
27544;DHT22;17996;51.056;3.656;2023-03-16T14:17:19;15.20;99.90
27544;DHT22;17996;51.056;3.656;2023-03-16T14:22:21;15.40;99.90
27544;DHT22;17996;51.056;3.656;2023-03-16T14:24:54;15.40;99.90
27544;DHT22;17996;51.056;3.656;2023-03-16T14:30:23;15.60;99.90
27544;DHT22;17996;51.056;3.656;2023-03-16T14:32:57;15.60;99.90
27544;DHT22;17996;51.056;3.656;2023-03-16T14:35:31;15.60;99.90
27544;DHT22;17996;51.056;3.656;2023-03-16T14:40:51;15.80;99.90
27544;DHT22;17996;51.056;3.656;2023-03-16T14:43:23;15.80;99.90
27544;DHT22;17996;51.056;3.656;2023-03-16T14:45:50;15.80;99.90
27544;DHT22;17996;51.056;3.656;2023-03-16T14:48:20;15.90;99.90
27544;DHT22;17996;51.056;3.656;2023-03-16T14:50:53;16.00;99.90
27544;DHT22;17996;51.056;3.656;2023-03-16T14:53:20;16.00;99.90
27544;DHT22;17996;51.056;3.656;2023-03-16T14:55:46;16.00;99.90
27544;DHT22;17996;51.056;3.656;2023-03-16T14:58:12;16.00;99.90
27544;DHT22;17996;51.056;3.656;2023-03-16T15:00:38;16.00;99.90
27544;DHT22;17996;51.056;3.656;2023-03-16T15:03:09;16.20;99.90
27544;DHT22;17996;51.056;3.656;2023-03-16T15:05:39;16.30;99.90
27544;DHT22;17996;51.056;3.656;2023-03-16T15:08:11;16.40;99.90
27544;DHT22;17996;51.056;3.656;2023-03-16T15:10:39;16.70;99.90
27544;DHT22;17996;51.056;3.656;2023-03-16T15:13:18;16.70;99.90
27544;DHT22;17996;51.056;3.656;2023-03-16T15:16:03;16.60;99.90
27544;DHT22;17996;51.056;3.656;2023-03-16T15:18:30;16.40;99.90
27544;DHT22;17996;51.056;3.656;2023-03-16T15:20:56;16.10;99.90
27544;DHT22;17996;51.056;3.656;2023-03-16T15:23:22;16.00;99.90
27544;DHT22;17996;51.056;3.656;2023-03-16T15:25:48;16.00;99.90
27544;DHT22;17996;51.056;3.656;2023-03-16T15:28:17;16.00;99.90
27544;DHT22;17996;51.056;3.656;2023-03-16T15:30:45;16.30;99.90
27544;DHT22;17996;51.056;3.656;2023-03-16T15:33:11;16.50;99.90
27544;DHT22;17996;51.056;3.656;2023-03-16T15:35:38;16.60;99.90
27544;DHT22;17996;51.056;3.656;2023-03-16T15:38:28;16.60;99.90
27544;DHT22;17996;51.056;3.656;2023-03-16T15:40:56;16.80;99.90
27544;DHT22;17996;51.056;3.656;2023-03-16T15:43:24;16.90;99.90
27544;DHT22;17996;51.056;3.656;2023-03-16T15:45:51;17.00;99.90
27544;DHT22;17996;51.056;3.656;2023-03-16T15:48:19;17.00;99.90
27544;DHT22;17996;51.056;3.656;2023-03-16T15:51:00;16.90;99.90
27544;DHT22;17996;51.056;3.656;2023-03-16T15:53:32;16.80;99.90
27544;DHT22;17996;51.056;3.656;2023-03-16T15:56:10;16.60;99.90
27544;DHT22;17996;51.056;3.656;2023-03-16T15:58:40;16.60;99.90
27544;DHT22;17996;51.056;3.656;2023-03-16T16:01:07;16.60;99.90
27544;DHT22;17996;51.056;3.656;2023-03-16T16:03:41;16.50;99.90
27544;DHT22;17996;51.056;3.656;2023-03-16T16:06:10;16.50;99.90
27544;DHT22;17996;51.056;3.656;2023-03-16T16:08:36;16.40;99.90
27544;DHT22;17996;51.056;3.656;2023-03-16T16:11:02;16.40;99.90
27544;DHT22;17996;51.056;3.656;2023-03-16T16:13:34;16.30;99.90
27544;DHT22;17996;51.056;3.656;2023-03-16T16:15:59;16.10;99.90
27544;DHT22;17996;51.056;3.656;2023-03-16T16:18:31;15.80;99.90
27544;DHT22;17996;51.056;3.656;2023-03-16T16:21:00;15.60;99.90
27544;DHT22;17996;51.056;3.656;2023-03-16T16:23:27;15.40;99.90
27544;DHT22;17996;51.056;3.656;2023-03-16T16:25:56;15.30;99.90
27544;DHT22;17996;51.056;3.656;2023-03-16T16:28:23;15.10;99.90
27544;DHT22;17996;51.056;3.656;2023-03-16T16:30:52;15.00;99.90
27544;DHT22;17996;51.056;3.656;2023-03-16T16:35:48;14.90;99.90
27544;DHT22;17996;51.056;3.656;2023-03-16T16:38:14;14.80;99.90
27544;DHT22;17996;51.056;3.656;2023-03-16T16:40:40;14.90;99.90
27544;DHT22;17996;51.056;3.656;2023-03-16T16:46:00;14.90;99.90
27544;DHT22;17996;51.056;3.656;2023-03-16T16:48:31;14.90;99.90
27544;DHT22;17996;51.056;3.656;2023-03-16T16:51:00;14.90;99.90
27544;DHT22;17996;51.056;3.656;2023-03-16T16:53:27;14.70;99.90
27544;DHT22;17996;51.056;3.656;2023-03-16T16:55:53;14.80;99.90
27544;DHT22;17996;51.056;3.656;2023-03-16T16:58:21;14.60;99.90
27544;DHT22;17996;51.056;3.656;2023-03-16T17:00:50;14.60;99.90
27544;DHT22;17996;51.056;3.656;2023-03-16T17:03:28;14.50;99.90
27544;DHT22;17996;51.056;3.656;2023-03-16T17:05:57;14.40;99.90
27544;DHT22;17996;51.056;3.656;2023-03-16T17:08:24;14.30;99.90
27544;DHT22;17996;51.056;3.656;2023-03-16T17:10:51;14.10;99.90
27544;DHT22;17996;51.056;3.656;2023-03-16T17:13:35;14.00;99.90
27544;DHT22;17996;51.056;3.656;2023-03-16T17:16:03;14.00;99.90
27544;DHT22;17996;51.056;3.656;2023-03-16T17:18:30;13.90;99.90
27544;DHT22;17996;51.056;3.656;2023-03-16T17:20:58;13.80;99.90
27544;DHT22;17996;51.056;3.656;2023-03-16T17:23:25;13.70;99.90
27544;DHT22;17996;51.056;3.656;2023-03-16T17:25:53;13.70;99.90